EGXC

Details ICAO EGXC (QCY)
Name RAF Coningsby
Region United Kingdom
Timezone Europe/London (UTC+1.0)
Plans Departing 24
Arriving 19
Stats Elevation 25 ft / 8 m (AMSL)
Location 53.093165° -0.166128°
Runways 1
Magnetic Variation 0.575° W
Sunrise 2018-05-22 03:53:22 UTC / 2018-05-22 04:53:22 Local
Sunset 2018-05-22 20:04:09 UTC / 2018-05-22 21:04:09 Local
Advertisement - Login to hide

Runways

ID Width Length Bearing (true) Bearing (mag) Surface Threshold Offset Overrun Length
08 200 ft / 61 m 8,962 ft / 2,732 m 71.85° 72.42° Concrete 0 ft / 0 m 0 ft / 0 m
26 200 ft / 61 m 8,962 ft / 2,732 m 251.89° 252.46° Concrete 0 ft / 0 m 0 ft / 0 m

Approach Navaids

Runway Type Ident Frequency Range Bearing (true) Bearing (mag) Slope Elevation
26 Localiser CY 110.70 MHz 18 nm / 33 km 251.85° 252.42° - 25 ft / 8 m (AMSL)
26 Glidescope CY 110.70 MHz 10 nm / 19 km 251.87° 252.44° 2.50° 25 ft / 8 m (AMSL)

Map

Weather


0- 5 10 15 20 25 30 35+ Temperature / ° C

Clouds and Precipitation
Forecast for 2018-05-22 00:00 UTC. Updated 6 hours ago

Ground ~20,000 ft ~40,000 ft Winds

METAR

EGXC 220450Z 35012KT CAVOK 11/08 Q1016 BLU

TAF

TAF EGXC 220143Z 2203/2221 34008KT CAVOK PROB40 2203/2207 4000 BR PROB30 2220/2221 SCT012

Frequencies

Ground 122.10 MHz Coningsby Ground
Approach 120.80 MHz Coningsby Approach
Tower 122.10 MHz Coningsby Tower
Warning: Do not use this data for real-world aviation or navigation. No guarantee of current accuracy is given.